sensor_id;sensor_type;location;lat;lon;timestamp;pressure;altitude;pressure_sealevel;temperature;humidity
15794;BME280;7999;51.208;4.244;2022-07-29T00:01:13;101681.81;;;18.14;54.94
15794;BME280;7999;51.208;4.244;2022-07-29T00:03:40;101673.06;;;18.12;54.78
15794;BME280;7999;51.208;4.244;2022-07-29T00:06:07;101672.34;;;18.02;55.21
15794;BME280;7999;51.208;4.244;2022-07-29T00:08:34;101670.56;;;18.04;55.21
15794;BME280;7999;51.208;4.244;2022-07-29T00:11:01;101667.81;;;18.12;55.18
15794;BME280;7999;51.208;4.244;2022-07-29T00:13:29;101666.81;;;18.17;54.95
15794;BME280;7999;51.208;4.244;2022-07-29T00:15:56;101669.63;;;18.08;55.64
15794;BME280;7999;51.208;4.244;2022-07-29T00:18:23;101671.09;;;17.74;56.95
15794;BME280;7999;51.208;4.244;2022-07-29T00:20:50;101667.50;;;17.78;56.87
15794;BME280;7999;51.208;4.244;2022-07-29T00:23:16;101662.53;;;17.59;57.26
15794;BME280;7999;51.208;4.244;2022-07-29T00:25:43;101658.31;;;17.48;57.45
15794;BME280;7999;51.208;4.244;2022-07-29T00:28:10;101663.59;;;17.46;57.44
15794;BME280;7999;51.208;4.244;2022-07-29T00:30:39;101658.28;;;17.49;57.44
15794;BME280;7999;51.208;4.244;2022-07-29T00:33:08;101659.13;;;17.51;57.37
15794;BME280;7999;51.208;4.244;2022-07-29T00:35:34;101646.88;;;17.50;57.34
15794;BME280;7999;51.208;4.244;2022-07-29T00:38:10;101652.13;;;17.53;57.29
15794;BME280;7999;51.208;4.244;2022-07-29T00:40:37;101647.53;;;17.65;56.91
15794;BME280;7999;51.208;4.244;2022-07-29T00:43:04;101648.63;;;17.51;57.25
15794;BME280;7999;51.208;4.244;2022-07-29T00:45:31;101649.81;;;17.32;57.93
15794;BME280;7999;51.208;4.244;2022-07-29T00:47:59;101650.66;;;17.34;57.88
15794;BME280;7999;51.208;4.244;2022-07-29T00:50:26;101645.47;;;17.31;58.13
15794;BME280;7999;51.208;4.244;2022-07-29T00:52:54;101649.66;;;17.43;57.97
15794;BME280;7999;51.208;4.244;2022-07-29T00:55:21;101639.91;;;17.48;57.81
15794;BME280;7999;51.208;4.244;2022-07-29T00:57:48;101640.88;;;17.44;57.99
15794;BME280;7999;51.208;4.244;2022-07-29T01:00:16;101633.84;;;17.44;58.20
15794;BME280;7999;51.208;4.244;2022-07-29T01:02:44;101632.97;;;17.44;58.20
15794;BME280;7999;51.208;4.244;2022-07-29T01:05:15;101634.75;;;17.43;58.40
15794;BME280;7999;51.208;4.244;2022-07-29T01:07:43;101628.69;;;17.38;58.55
15794;BME280;7999;51.208;4.244;2022-07-29T01:10:11;101633.06;;;17.39;58.57
15794;BME280;7999;51.208;4.244;2022-07-29T01:12:39;101627.59;;;17.51;58.31
15794;BME280;7999;51.208;4.244;2022-07-29T01:15:07;101629.44;;;17.46;58.49
15794;BME280;7999;51.208;4.244;2022-07-29T01:17:36;101622.44;;;17.45;58.30
15794;BME280;7999;51.208;4.244;2022-07-29T01:20:07;101624.13;;;17.49;57.98
15794;BME280;7999;51.208;4.244;2022-07-29T01:22:45;101618.84;;;17.51;58.06
15794;BME280;7999;51.208;4.244;2022-07-29T01:25:28;101614.53;;;17.47;58.26
15794;BME280;7999;51.208;4.244;2022-07-29T01:30:48;101615.44;;;17.44;58.28
15794;BME280;7999;51.208;4.244;2022-07-29T01:33:17;101624.19;;;17.46;58.24
15794;BME280;7999;51.208;4.244;2022-07-29T01:35:59;101619.88;;;17.42;58.15
15794;BME280;7999;51.208;4.244;2022-07-29T01:38:27;101612.75;;;17.47;58.05
15794;BME280;7999;51.208;4.244;2022-07-29T01:40:58;101612.75;;;17.47;57.97
15794;BME280;7999;51.208;4.244;2022-07-29T01:43:34;101612.69;;;17.52;57.77
15794;BME280;7999;51.208;4.244;2022-07-29T01:46:06;101612.75;;;17.49;57.81
15794;BME280;7999;51.208;4.244;2022-07-29T01:48:37;101617.19;;;17.45;57.55
15794;BME280;7999;51.208;4.244;2022-07-29T01:51:09;101613.59;;;17.49;57.45
15794;BME280;7999;51.208;4.244;2022-07-29T01:53:42;101611.88;;;17.48;57.52
15794;BME280;7999;51.208;4.244;2022-07-29T01:56:11;101610.00;;;17.56;57.26
15794;BME280;7999;51.208;4.244;2022-07-29T01:58:40;101623.34;;;17.44;57.75
15794;BME280;7999;51.208;4.244;2022-07-29T02:01:09;101618.88;;;17.49;57.73
15794;BME280;7999;51.208;4.244;2022-07-29T02:03:37;101622.50;;;17.42;58.75
15794;BME280;7999;51.208;4.244;2022-07-29T02:06:06;101622.81;;;17.21;59.46
15794;BME280;7999;51.208;4.244;2022-07-29T02:08:34;101616.03;;;17.08;59.87
15794;BME280;7999;51.208;4.244;2022-07-29T02:11:03;101614.38;;;17.01;60.24
15794;BME280;7999;51.208;4.244;2022-07-29T02:13:31;101613.63;;;16.91;60.58
15794;BME280;7999;51.208;4.244;2022-07-29T02:15:58;101612.81;;;16.87;60.63
15794;BME280;7999;51.208;4.244;2022-07-29T02:18:28;101612.75;;;16.90;60.52
15794;BME280;7999;51.208;4.244;2022-07-29T02:20:56;101613.72;;;16.85;60.77
15794;BME280;7999;51.208;4.244;2022-07-29T02:23:25;101609.34;;;16.85;60.65
15794;BME280;7999;51.208;4.244;2022-07-29T02:25:53;101610.41;;;16.71;61.08
15794;BME280;7999;51.208;4.244;2022-07-29T02:28:21;101607.00;;;16.61;61.22
15794;BME280;7999;51.208;4.244;2022-07-29T02:30:49;101596.53;;;16.59;61.22
15794;BME280;7999;51.208;4.244;2022-07-29T02:33:17;101612.25;;;16.61;61.34
15794;BME280;7999;51.208;4.244;2022-07-29T02:35:47;101607.13;;;16.53;61.63
15794;BME280;7999;51.208;4.244;2022-07-29T02:38:15;101604.41;;;16.58;61.55
15794;BME280;7999;51.208;4.244;2022-07-29T02:41:01;101607.06;;;16.56;61.61
15794;BME280;7999;51.208;4.244;2022-07-29T02:43:30;101611.44;;;16.56;61.81
15794;BME280;7999;51.208;4.244;2022-07-29T02:45:58;101599.31;;;16.47;62.04
15794;BME280;7999;51.208;4.244;2022-07-29T02:48:27;101597.63;;;16.42;62.30
15794;BME280;7999;51.208;4.244;2022-07-29T02:50:58;101596.75;;;16.41;62.39
15794;BME280;7999;51.208;4.244;2022-07-29T02:53:28;101595.91;;;16.37;62.61
15794;BME280;7999;51.208;4.244;2022-07-29T02:56:00;101595.06;;;16.35;62.61
15794;BME280;7999;51.208;4.244;2022-07-29T02:58:28;101603.75;;;16.41;62.67
15794;BME280;7999;51.208;4.244;2022-07-29T03:00:56;101595.91;;;16.39;62.79
15794;BME280;7999;51.208;4.244;2022-07-29T03:03:24;101595.13;;;16.31;63.06
15794;BME280;7999;51.208;4.244;2022-07-29T03:05:54;101590.72;;;16.34;63.03
15794;BME280;7999;51.208;4.244;2022-07-29T03:08:23;101597.69;;;16.35;63.05
15794;BME280;7999;51.208;4.244;2022-07-29T03:10:51;101596.00;;;16.31;63.19
15794;BME280;7999;51.208;4.244;2022-07-29T03:13:19;101585.63;;;16.22;63.75
15794;BME280;7999;51.208;4.244;2022-07-29T03:15:47;101587.34;;;16.23;63.59
15794;BME280;7999;51.208;4.244;2022-07-29T03:18:14;101595.16;;;16.29;63.25
15794;BME280;7999;51.208;4.244;2022-07-29T03:20:42;101594.25;;;16.30;63.37
15794;BME280;7999;51.208;4.244;2022-07-29T03:23:09;101600.34;;;16.34;63.21
15794;BME280;7999;51.208;4.244;2022-07-29T03:25:37;101595.19;;;16.28;63.57
15794;BME280;7999;51.208;4.244;2022-07-29T03:28:04;101596.13;;;16.22;63.54
15794;BME280;7999;51.208;4.244;2022-07-29T03:30:32;101601.63;;;15.98;64.68
15794;BME280;7999;51.208;4.244;2022-07-29T03:32:59;101603.19;;;16.17;64.26
15794;BME280;7999;51.208;4.244;2022-07-29T03:35:26;101603.13;;;16.20;64.09
15794;BME280;7999;51.208;4.244;2022-07-29T03:37:53;101604.91;;;16.18;64.38
15794;BME280;7999;51.208;4.244;2022-07-29T03:40:22;101602.09;;;16.33;63.92
15794;BME280;7999;51.208;4.244;2022-07-29T03:42:50;101597.75;;;16.32;63.63
15794;BME280;7999;51.208;4.244;2022-07-29T03:45:18;101601.22;;;16.34;64.09
15794;BME280;7999;51.208;4.244;2022-07-29T03:47:47;101608.09;;;16.46;63.54
15794;BME280;7999;51.208;4.244;2022-07-29T03:50:15;101599.47;;;16.33;63.76
15794;BME280;7999;51.208;4.244;2022-07-29T03:52:44;101596.91;;;16.29;63.73
15794;BME280;7999;51.208;4.244;2022-07-29T03:55:12;101598.72;;;16.24;64.04
15794;BME280;7999;51.208;4.244;2022-07-29T03:57:39;101602.31;;;16.14;64.29
15794;BME280;7999;51.208;4.244;2022-07-29T04:00:08;101602.38;;;16.09;64.34
15794;BME280;7999;51.208;4.244;2022-07-29T04:02:36;101602.44;;;16.04;64.73
15794;BME280;7999;51.208;4.244;2022-07-29T04:05:04;101595.75;;;15.74;65.73
15794;BME280;7999;51.208;4.244;2022-07-29T04:07:31;101614.13;;;15.71;66.34
15794;BME280;7999;51.208;4.244;2022-07-29T04:09:58;101610.53;;;15.82;66.02
15794;BME280;7999;51.208;4.244;2022-07-29T04:12:25;101614.06;;;15.77;66.11
15794;BME280;7999;51.208;4.244;2022-07-29T04:14:52;101613.19;;;15.77;66.09
15794;BME280;7999;51.208;4.244;2022-07-29T04:17:20;101612.28;;;15.80;65.89
15794;BME280;7999;51.208;4.244;2022-07-29T04:19:46;101613.13;;;15.82;65.76
15794;BME280;7999;51.208;4.244;2022-07-29T04:22:13;101620.94;;;15.88;65.51
15794;BME280;7999;51.208;4.244;2022-07-29T04:24:40;101622.72;;;15.86;65.84
15794;BME280;7999;51.208;4.244;2022-07-29T04:27:07;101629.06;;;15.60;66.98
15794;BME280;7999;51.208;4.244;2022-07-29T04:29:33;101620.31;;;15.60;67.08
15794;BME280;7999;51.208;4.244;2022-07-29T04:32:02;101622.97;;;15.55;67.28
15794;BME280;7999;51.208;4.244;2022-07-29T04:34:30;101623.84;;;15.62;67.06
15794;BME280;7999;51.208;4.244;2022-07-29T04:36:57;101620.28;;;15.66;66.92
15794;BME280;7999;51.208;4.244;2022-07-29T04:39:24;101614.06;;;15.77;66.43
15794;BME280;7999;51.208;4.244;2022-07-29T04:41:51;101622.16;;;15.47;67.73
15794;BME280;7999;51.208;4.244;2022-07-29T04:44:18;101617.81;;;15.46;67.71
15794;BME280;7999;51.208;4.244;2022-07-29T04:46:44;101619.47;;;15.59;67.18
15794;BME280;7999;51.208;4.244;2022-07-29T04:49:11;101629.94;;;15.59;67.20
15794;BME280;7999;51.208;4.244;2022-07-29T04:51:42;101626.22;;;15.83;66.13
15794;BME280;7999;51.208;4.244;2022-07-29T04:54:09;101627.16;;;15.77;66.70
15794;BME280;7999;51.208;4.244;2022-07-29T04:56:36;101635.09;;;15.71;67.18
15794;BME280;7999;51.208;4.244;2022-07-29T04:59:03;101630.69;;;15.75;66.73
15794;BME280;7999;51.208;4.244;2022-07-29T05:01:30;101631.56;;;15.75;67.07
15794;BME280;7999;51.208;4.244;2022-07-29T05:03:57;101633.19;;;15.86;66.47
15794;BME280;7999;51.208;4.244;2022-07-29T05:06:23;101628.91;;;15.77;66.97
15794;BME280;7999;51.208;4.244;2022-07-29T05:08:52;101631.53;;;15.79;67.09
15794;BME280;7999;51.208;4.244;2022-07-29T05:11:19;101635.03;;;15.77;67.19
15794;BME280;7999;51.208;4.244;2022-07-29T05:13:46;101634.16;;;15.77;67.20
15794;BME280;7999;51.208;4.244;2022-07-29T05:16:13;101641.25;;;15.67;66.87
15794;BME280;7999;51.208;4.244;2022-07-29T05:18:40;101638.72;;;15.52;68.10
15794;BME280;7999;51.208;4.244;2022-07-29T05:21:07;101636.00;;;15.69;67.45
15794;BME280;7999;51.208;4.244;2022-07-29T05:23:33;101643.78;;;15.75;67.54
15794;BME280;7999;51.208;4.244;2022-07-29T05:26:02;101638.34;;;15.98;66.68
15794;BME280;7999;51.208;4.244;2022-07-29T05:28:32;101630.84;;;16.44;65.21
15794;BME280;7999;51.208;4.244;2022-07-29T05:30:59;101641.91;;;16.74;64.10
15794;BME280;7999;51.208;4.244;2022-07-29T05:33:26;101641.69;;;16.89;63.94
15794;BME280;7999;51.208;4.244;2022-07-29T05:35:55;101645.09;;;17.52;61.76
15794;BME280;7999;51.208;4.244;2022-07-29T05:38:23;101646.31;;;17.32;61.81
15794;BME280;7999;51.208;4.244;2022-07-29T05:40:49;101656.41;;;17.01;62.96
15794;BME280;7999;51.208;4.244;2022-07-29T05:43:18;101650.56;;;16.79;63.65
15794;BME280;7999;51.208;4.244;2022-07-29T05:45:46;101657.66;;;16.74;63.75
15794;BME280;7999;51.208;4.244;2022-07-29T05:48:13;101657.91;;;17.17;62.71
15794;BME280;7999;51.208;4.244;2022-07-29T05:50:42;101664.31;;;16.97;63.04
15794;BME280;7999;51.208;4.244;2022-07-29T05:53:13;101665.25;;;16.93;63.39
15794;BME280;7999;51.208;4.244;2022-07-29T05:55:39;101677.53;;;16.91;63.76
15794;BME280;7999;51.208;4.244;2022-07-29T05:58:06;101671.94;;;17.17;62.98
15794;BME280;7999;51.208;4.244;2022-07-29T06:00:34;101677.22;;;17.74;61.12
15794;BME280;7999;51.208;4.244;2022-07-29T06:03:01;101676.19;;;17.26;62.88
15794;BME280;7999;51.208;4.244;2022-07-29T06:05:27;101675.72;;;16.96;63.51
15794;BME280;7999;51.208;4.244;2022-07-29T06:07:54;101681.34;;;17.34;62.58
15794;BME280;7999;51.208;4.244;2022-07-29T06:10:21;101684.25;;;17.72;61.58
15794;BME280;7999;51.208;4.244;2022-07-29T06:12:48;101675.72;;;17.56;61.38
15794;BME280;7999;51.208;4.244;2022-07-29T06:15:14;101673.09;;;17.56;61.28
15794;BME280;7999;51.208;4.244;2022-07-29T06:17:42;101677.44;;;17.01;63.28
15794;BME280;7999;51.208;4.244;2022-07-29T06:20:10;101677.78;;;16.70;64.39
15794;BME280;7999;51.208;4.244;2022-07-29T06:22:36;101675.94;;;16.81;64.37
15794;BME280;7999;51.208;4.244;2022-07-29T06:25:03;101683.50;;;17.64;61.66
15794;BME280;7999;51.208;4.244;2022-07-29T06:27:30;101681.13;;;18.01;60.81
15794;BME280;7999;51.208;4.244;2022-07-29T06:29:56;101684.03;;;18.80;58.00
15794;BME280;7999;51.208;4.244;2022-07-29T06:32:23;101694.66;;;19.17;57.74
15794;BME280;7999;51.208;4.244;2022-07-29T06:34:51;101693.34;;;20.43;54.21
15794;BME280;7999;51.208;4.244;2022-07-29T06:37:18;101690.66;;;20.11;53.96
15794;BME280;7999;51.208;4.244;2022-07-29T06:39:45;101701.56;;;19.61;55.60
15794;BME280;7999;51.208;4.244;2022-07-29T06:42:12;101683.56;;;20.13;54.34
15794;BME280;7999;51.208;4.244;2022-07-29T06:44:39;101691.41;;;20.16;54.08
15794;BME280;7999;51.208;4.244;2022-07-29T06:47:07;101691.44;;;19.04;57.53
15794;BME280;7999;51.208;4.244;2022-07-29T06:49:34;101686.63;;;20.30;55.04
15794;BME280;7999;51.208;4.244;2022-07-29T06:52:02;101700.41;;;21.03;52.57
15794;BME280;7999;51.208;4.244;2022-07-29T06:54:29;101692.78;;;21.23;51.83
15794;BME280;7999;51.208;4.244;2022-07-29T06:56:56;101686.06;;;20.82;53.24
15794;BME280;7999;51.208;4.244;2022-07-29T06:59:24;101692.66;;;20.35;53.99
15794;BME280;7999;51.208;4.244;2022-07-29T07:01:52;101690.72;;;21.59;51.27
15794;BME280;7999;51.208;4.244;2022-07-29T07:04:19;101695.91;;;21.64;50.90
15794;BME280;7999;51.208;4.244;2022-07-29T07:06:46;101690.50;;;20.17;54.28
15794;BME280;7999;51.208;4.244;2022-07-29T07:09:14;101691.81;;;21.26;52.42
15794;BME280;7999;51.208;4.244;2022-07-29T07:11:40;101685.94;;;22.72;49.71
15794;BME280;7999;51.208;4.244;2022-07-29T07:14:07;101688.31;;;22.79;48.48
15794;BME280;7999;51.208;4.244;2022-07-29T07:16:34;101694.41;;;22.83;48.19
15794;BME280;7999;51.208;4.244;2022-07-29T07:19:01;101707.38;;;23.36;47.78
15794;BME280;7999;51.208;4.244;2022-07-29T07:21:28;101707.72;;;22.81;47.56
15794;BME280;7999;51.208;4.244;2022-07-29T07:23:55;101714.13;;;22.00;49.96
15794;BME280;7999;51.208;4.244;2022-07-29T07:26:23;101707.28;;;22.44;49.49
15794;BME280;7999;51.208;4.244;2022-07-29T07:28:50;101710.31;;;22.33;50.78
15794;BME280;7999;51.208;4.244;2022-07-29T07:31:16;101714.75;;;22.58;49.20
15794;BME280;7999;51.208;4.244;2022-07-29T07:33:43;101726.81;;;23.36;47.47
15794;BME280;7999;51.208;4.244;2022-07-29T07:36:10;101712.25;;;22.78;48.36
15794;BME280;7999;51.208;4.244;2022-07-29T07:38:36;101722.94;;;24.31;46.27
15794;BME280;7999;51.208;4.244;2022-07-29T07:41:03;101711.09;;;25.16;44.20
15794;BME280;7999;51.208;4.244;2022-07-29T07:43:31;101718.78;;;24.64;44.16
15794;BME280;7999;51.208;4.244;2022-07-29T07:45:58;101708.41;;;25.35;43.31
15794;BME280;7999;51.208;4.244;2022-07-29T07:48:25;101706.22;;;24.68;44.30
15794;BME280;7999;51.208;4.244;2022-07-29T07:50:51;101721.09;;;23.24;48.05
15794;BME280;7999;51.208;4.244;2022-07-29T07:53:18;101719.72;;;22.42;48.97
15794;BME280;7999;51.208;4.244;2022-07-29T07:55:45;101713.13;;;23.91;46.82
15794;BME280;7999;51.208;4.244;2022-07-29T07:58:12;101709.69;;;25.45;43.54
15794;BME280;7999;51.208;4.244;2022-07-29T08:00:40;101709.28;;;24.18;45.96
15794;BME280;7999;51.208;4.244;2022-07-29T08:03:07;101708.16;;;24.24;45.07
15794;BME280;7999;51.208;4.244;2022-07-29T08:05:34;101701.19;;;25.56;42.52
15794;BME280;7999;51.208;4.244;2022-07-29T08:08:02;101703.69;;;25.78;42.23
15794;BME280;7999;51.208;4.244;2022-07-29T08:10:28;101714.19;;;26.33;41.27
15794;BME280;7999;51.208;4.244;2022-07-29T08:13:13;101708.38;;;27.55;38.45
15794;BME280;7999;51.208;4.244;2022-07-29T08:15:41;101716.91;;;27.30;39.01
15794;BME280;7999;51.208;4.244;2022-07-29T08:18:10;101711.34;;;25.67;41.05
15794;BME280;7999;51.208;4.244;2022-07-29T08:20:36;101715.91;;;25.99;41.42
15794;BME280;7999;51.208;4.244;2022-07-29T08:23:04;101714.34;;;26.30;41.55
15794;BME280;7999;51.208;4.244;2022-07-29T08:25:31;101718.91;;;27.27;38.87
15794;BME280;7999;51.208;4.244;2022-07-29T08:27:58;101714.88;;;26.87;39.98
15794;BME280;7999;51.208;4.244;2022-07-29T08:30:25;101711.53;;;25.81;42.39
15794;BME280;7999;51.208;4.244;2022-07-29T08:32:53;101710.72;;;27.14;39.97
15794;BME280;7999;51.208;4.244;2022-07-29T08:35:21;101709.81;;;27.61;37.92
15794;BME280;7999;51.208;4.244;2022-07-29T08:37:48;101703.72;;;28.05;38.36
15794;BME280;7999;51.208;4.244;2022-07-29T08:40:16;101710.97;;;28.61;36.37
15794;BME280;7999;51.208;4.244;2022-07-29T08:42:43;101708.63;;;27.03;37.93
15794;BME280;7999;51.208;4.244;2022-07-29T08:45:10;101707.66;;;25.69;40.81
15794;BME280;7999;51.208;4.244;2022-07-29T08:47:37;101711.19;;;27.84;37.78
15794;BME280;7999;51.208;4.244;2022-07-29T08:50:07;101718.25;;;28.59;36.61
15794;BME280;7999;51.208;4.244;2022-07-29T08:52:35;101705.44;;;27.76;36.21
15794;BME280;7999;51.208;4.244;2022-07-29T08:55:02;101711.16;;;28.14;37.20
15794;BME280;7999;51.208;4.244;2022-07-29T08:57:29;101707.16;;;28.93;34.99
15794;BME280;7999;51.208;4.244;2022-07-29T08:59:57;101709.44;;;29.00;35.10
15794;BME280;7999;51.208;4.244;2022-07-29T09:02:27;101711.75;;;27.27;36.67
15794;BME280;7999;51.208;4.244;2022-07-29T09:04:54;101710.31;;;28.57;35.47
15794;BME280;7999;51.208;4.244;2022-07-29T09:07:24;101704.59;;;26.63;37.97
15794;BME280;7999;51.208;4.244;2022-07-29T09:09:51;101703.25;;;28.12;36.45
15794;BME280;7999;51.208;4.244;2022-07-29T09:12:18;101705.13;;;28.26;35.40
15794;BME280;7999;51.208;4.244;2022-07-29T09:14:45;101706.66;;;28.30;35.77
15794;BME280;7999;51.208;4.244;2022-07-29T09:17:12;101708.78;;;28.53;35.76
15794;BME280;7999;51.208;4.244;2022-07-29T09:19:39;101703.78;;;28.47;35.18
15794;BME280;7999;51.208;4.244;2022-07-29T09:22:06;101703.44;;;29.10;36.04
15794;BME280;7999;51.208;4.244;2022-07-29T09:24:39;101703.34;;;29.39;34.73
15794;BME280;7999;51.208;4.244;2022-07-29T09:27:10;101704.53;;;29.20;34.72
15794;BME280;7999;51.208;4.244;2022-07-29T09:29:37;101709.06;;;28.49;36.26
15794;BME280;7999;51.208;4.244;2022-07-29T09:32:06;101701.59;;;28.68;35.74
15794;BME280;7999;51.208;4.244;2022-07-29T09:34:33;101708.38;;;28.74;36.07
15794;BME280;7999;51.208;4.244;2022-07-29T09:37:00;101707.28;;;26.79;37.80
15794;BME280;7999;51.208;4.244;2022-07-29T09:39:27;101718.91;;;26.45;38.88
15794;BME280;7999;51.208;4.244;2022-07-29T09:41:57;101710.09;;;27.72;36.00
15794;BME280;7999;51.208;4.244;2022-07-29T09:44:25;101687.28;;;28.55;34.56
15794;BME280;7999;51.208;4.244;2022-07-29T09:46:58;101709.19;;;27.87;35.91
15794;BME280;7999;51.208;4.244;2022-07-29T09:49:30;101702.59;;;28.53;35.32
15794;BME280;7999;51.208;4.244;2022-07-29T09:52:04;101706.66;;;27.70;35.05
15794;BME280;7999;51.208;4.244;2022-07-29T09:54:31;101697.56;;;29.59;32.54
15794;BME280;7999;51.208;4.244;2022-07-29T09:57:03;101704.84;;;29.97;33.25
15794;BME280;7999;51.208;4.244;2022-07-29T09:59:31;101705.88;;;29.81;33.33
15794;BME280;7999;51.208;4.244;2022-07-29T10:01:58;101710.00;;;30.00;32.62
15794;BME280;7999;51.208;4.244;2022-07-29T10:04:35;101708.84;;;30.04;32.21
15794;BME280;7999;51.208;4.244;2022-07-29T10:07:03;101712.31;;;28.82;34.33
15794;BME280;7999;51.208;4.244;2022-07-29T10:09:30;101710.13;;;27.40;37.63
15794;BME280;7999;51.208;4.244;2022-07-29T10:12:08;101708.63;;;28.85;35.11
15794;BME280;7999;51.208;4.244;2022-07-29T10:14:36;101716.66;;;27.51;35.97
15794;BME280;7999;51.208;4.244;2022-07-29T10:17:04;101710.16;;;28.89;35.29
15794;BME280;7999;51.208;4.244;2022-07-29T10:19:32;101714.84;;;29.68;34.67
15794;BME280;7999;51.208;4.244;2022-07-29T10:21:59;101712.69;;;27.26;35.92
15794;BME280;7999;51.208;4.244;2022-07-29T10:24:26;101707.13;;;28.37;35.69
15794;BME280;7999;51.208;4.244;2022-07-29T10:26:54;101695.69;;;29.47;33.12
15794;BME280;7999;51.208;4.244;2022-07-29T10:29:23;101703.47;;;29.64;35.50
15794;BME280;7999;51.208;4.244;2022-07-29T10:31:52;101706.41;;;30.39;32.02
15794;BME280;7999;51.208;4.244;2022-07-29T10:34:23;101705.75;;;30.10;31.63
15794;BME280;7999;51.208;4.244;2022-07-29T10:36:54;101698.84;;;28.98;34.25
15794;BME280;7999;51.208;4.244;2022-07-29T10:39:30;101704.06;;;29.55;33.02
15794;BME280;7999;51.208;4.244;2022-07-29T10:42:02;101698.88;;;30.06;33.43
15794;BME280;7999;51.208;4.244;2022-07-29T10:44:34;101702.56;;;30.18;32.93
15794;BME280;7999;51.208;4.244;2022-07-29T10:47:01;101701.72;;;30.42;32.49
15794;BME280;7999;51.208;4.244;2022-07-29T10:49:28;101699.34;;;30.25;34.77
15794;BME280;7999;51.208;4.244;2022-07-29T10:51:58;101701.34;;;30.60;30.99
15794;BME280;7999;51.208;4.244;2022-07-29T10:54:35;101701.44;;;29.68;31.57
15794;BME280;7999;51.208;4.244;2022-07-29T10:57:10;101704.47;;;29.76;32.21
15794;BME280;7999;51.208;4.244;2022-07-29T10:59:39;101708.38;;;26.59;36.18
15794;BME280;7999;51.208;4.244;2022-07-29T11:05:00;101699.13;;;30.41;30.74
15794;BME280;7999;51.208;4.244;2022-07-29T11:07:28;101702.06;;;28.46;32.25
15794;BME280;7999;51.208;4.244;2022-07-29T11:10:19;101698.28;;;28.93;31.67
15794;BME280;7999;51.208;4.244;2022-07-29T11:12:46;101698.91;;;30.57;29.18
15794;BME280;7999;51.208;4.244;2022-07-29T11:15:15;101693.25;;;29.96;30.71
15794;BME280;7999;51.208;4.244;2022-07-29T11:23:19;101686.94;;;25.76;37.72
15794;BME280;7999;51.208;4.244;2022-07-29T11:25:46;101690.03;;;28.39;34.34
15794;BME280;7999;51.208;4.244;2022-07-29T11:28:33;101686.69;;;29.48;30.59
15794;BME280;7999;51.208;4.244;2022-07-29T11:31:02;101687.09;;;30.34;32.34
15794;BME280;7999;51.208;4.244;2022-07-29T11:33:30;101683.56;;;31.21;28.89
15794;BME280;7999;51.208;4.244;2022-07-29T11:36:07;101690.75;;;30.45;30.39
15794;BME280;7999;51.208;4.244;2022-07-29T11:38:34;101688.47;;;29.62;31.01
15794;BME280;7999;51.208;4.244;2022-07-29T11:41:19;101688.81;;;30.73;29.14
15794;BME280;7999;51.208;4.244;2022-07-29T11:43:46;101693.22;;;30.36;28.32
15794;BME280;7999;51.208;4.244;2022-07-29T11:46:15;101689.25;;;30.29;30.93
15794;BME280;7999;51.208;4.244;2022-07-29T11:48:42;101691.34;;;31.60;29.18
15794;BME280;7999;51.208;4.244;2022-07-29T11:51:10;101695.03;;;31.83;29.11
15794;BME280;7999;51.208;4.244;2022-07-29T11:53:37;101692.94;;;31.02;29.82
15794;BME280;7999;51.208;4.244;2022-07-29T11:56:06;101697.09;;;31.91;27.82
15794;BME280;7999;51.208;4.244;2022-07-29T11:58:35;101696.13;;;30.20;28.84
15794;BME280;7999;51.208;4.244;2022-07-29T12:01:02;101694.28;;;28.86;30.12
15794;BME280;7999;51.208;4.244;2022-07-29T12:03:31;101705.03;;;29.54;31.36
15794;BME280;7999;51.208;4.244;2022-07-29T12:05:59;101692.72;;;30.69;29.54
15794;BME280;7999;51.208;4.244;2022-07-29T12:08:26;101705.81;;;29.15;29.94
15794;BME280;7999;51.208;4.244;2022-07-29T12:10:53;101695.69;;;28.35;31.16
15794;BME280;7999;51.208;4.244;2022-07-29T12:13:20;101705.91;;;28.99;30.45
15794;BME280;7999;51.208;4.244;2022-07-29T12:15:53;101701.66;;;28.24;31.38
15794;BME280;7999;51.208;4.244;2022-07-29T12:18:22;101707.88;;;27.49;31.99
15794;BME280;7999;51.208;4.244;2022-07-29T12:20:57;101718.03;;;27.26;34.40
15794;BME280;7999;51.208;4.244;2022-07-29T12:23:24;101720.66;;;27.89;33.92
15794;BME280;7999;51.208;4.244;2022-07-29T12:25:51;101710.75;;;26.97;34.13
15794;BME280;7999;51.208;4.244;2022-07-29T12:28:17;101706.72;;;26.90;35.47
15794;BME280;7999;51.208;4.244;2022-07-29T12:30:47;101713.72;;;28.31;32.22
15794;BME280;7999;51.208;4.244;2022-07-29T12:33:19;101709.59;;;27.02;32.46
15794;BME280;7999;51.208;4.244;2022-07-29T12:35:47;101709.25;;;28.46;32.31
15794;BME280;7999;51.208;4.244;2022-07-29T12:38:16;101704.16;;;29.80;30.76
15794;BME280;7999;51.208;4.244;2022-07-29T12:40:43;101702.63;;;29.22;31.66
15794;BME280;7999;51.208;4.244;2022-07-29T12:43:11;101704.25;;;30.31;30.01
15794;BME280;7999;51.208;4.244;2022-07-29T12:45:39;101709.06;;;29.61;30.29
15794;BME280;7999;51.208;4.244;2022-07-29T12:48:06;101701.69;;;29.50;30.50
15794;BME280;7999;51.208;4.244;2022-07-29T12:50:34;101700.00;;;29.08;30.43
15794;BME280;7999;51.208;4.244;2022-07-29T12:53:08;101705.72;;;27.71;31.53
15794;BME280;7999;51.208;4.244;2022-07-29T12:55:40;101711.81;;;27.73;32.89
15794;BME280;7999;51.208;4.244;2022-07-29T12:58:07;101709.34;;;28.73;31.08
15794;BME280;7999;51.208;4.244;2022-07-29T13:00:33;101700.56;;;28.71;30.89
15794;BME280;7999;51.208;4.244;2022-07-29T13:03:00;101715.03;;;28.24;32.72
15794;BME280;7999;51.208;4.244;2022-07-29T13:05:38;101714.91;;;27.65;33.63
15794;BME280;7999;51.208;4.244;2022-07-29T13:08:12;101707.97;;;28.23;32.22
15794;BME280;7999;51.208;4.244;2022-07-29T13:10:41;101710.69;;;28.51;32.23
15794;BME280;7999;51.208;4.244;2022-07-29T13:13:08;101707.38;;;29.05;31.02
15794;BME280;7999;51.208;4.244;2022-07-29T13:15:36;101702.47;;;28.83;30.55
15794;BME280;7999;51.208;4.244;2022-07-29T13:18:03;101705.16;;;29.11;30.77